Terminal Aerodrome Forecast
Issued by NWS Memphis, TN

Current Version | Previous Version | Text Only | Print | Product List | Glossary On
Versions: 1 2 3 4 5 6 7 8 9 10 11 12 13 14 15 16 17 18 19 20
000
FTUS44 KMEG 290521
TAFMKL
TAF
KMKL 290521Z 2906/3006 00000KT 6SM BR SKC
      TEMPO 2909/2913 2SM BR
     FM291400 02007KT P6SM FEW250
     FM300100 VRB03KT P6SM SKC=

USA.gov is the U.S. government's official web portal to all federal, state and local government web resources and services.